Goliah — WDD5908 — position and weather

sailwx.info

Track history (hours):
 
Tides and Currents Weather Stations Pressure Air Temp Water Temp Dewpoint Dewpoint Depression Visibility Wind Speed Wind Dir Waves Ship Positions

Goliah

Owner: Crowley Marine Services, Seattle, WA. More information available from US FCC via Universal Licensing System and Coast Guard Vessel Documentation Center.

Last reported at 2018-Aug-14 05:50 UTC. Time now 2018-Aug-14 07:01 UTC.
Position N 38°02' W 122°10'.

Length 33 m; draft 4.8 m.

Type: Tug. MMSI: 366898250.

Date/timePositionNaut miles runAvg speedWind from/ knotsBaromVisibWave heightAir tempDewpointWater temp
2018-Aug-14 05:50N 38°02' W 122°10'1 0.6
2018-Aug-14 03:33N 38°02' W 122°09'1 9.5
2018-Aug-14 03:29N 38°02' W 122°08'0 0.0
2018-Aug-14 02:56N 38°02' W 122°08'2 0.9
2018-Aug-14 00:24N 38°03' W 122°11'3 8.4
2018-Aug-14 00:00N 38°03' W 122°15'2 3.1
2018-Aug-13 23:30N 38°04' W 122°13'4 2.6
2018-Aug-13 22:00N 38°02' W 122°08'1 0.1
2018-Aug-13 13:36N 38°02' W 122°09'1 4.7
2018-Aug-13 13:25N 38°02' W 122°08'0 0.1
2018-Aug-13 13:00N 38°02' W 122°08'1 0.8
2018-Aug-13 12:18N 38°02' W 122°08'2 0.1
2018-Aug-13 00:53N 38°02' W 122°10'1 1.4
2018-Aug-13 00:26N 38°02' W 122°10'1 0.9
2018-Aug-12 22:57N 38°02' W 122°08'3 5.0
2018-Aug-12 22:22N 38°03' W 122°12'410.2
2018-Aug-12 22:00N 38°04' W 122°16'1 2.0
2018-Aug-12 21:30N 38°04' W 122°15'0 0.3
2018-Aug-12 21:00N 38°03' W 122°15'0 0.0
2018-Aug-12 20:30N 38°03' W 122°15'0 0.0
2018-Aug-12 20:00N 38°03' W 122°15'0 0.0
2018-Aug-12 19:29N 38°03' W 122°15'0 0.0
2018-Aug-12 19:00N 38°03' W 122°15'0 0.0
2018-Aug-12 18:30N 38°03' W 122°15'0 0.0
2018-Aug-12 18:00N 38°03' W 122°15'0 0.0
2018-Aug-12 17:30N 38°03' W 122°15'0 0.0
2018-Aug-12 17:00N 38°03' W 122°15'0 0.1
2018-Aug-12 16:31N 38°04' W 122°15'0 0.2
2018-Aug-12 16:00N 38°04' W 122°15'3 5.1
2018-Aug-12 15:30N 38°03' W 122°18'4 7.5
2018-Aug-12 15:01N 38°02' W 122°22'4 7.6
2018-Aug-12 14:30N 37°59' W 122°25'4 8.1
2018-Aug-12 14:00N 37°55' W 122°25'4 8.9
2018-Aug-12 13:30N 37°51' W 122°23'4 9.0
2018-Aug-12 13:00N 37°48' W 122°19'1 2.1
2018-Aug-12 12:30N 37°48' W 122°17'1 2.1
2018-Aug-12 12:00N 37°48' W 122°19'1 2.3
2018-Aug-12 11:30N 37°48' W 122°20'3 5.9
2018-Aug-12 11:00N 37°48' W 122°24'0 0.0
2018-Aug-12 10:30N 37°48' W 122°24'0 0.0
2018-Aug-12 09:59N 37°48' W 122°24'0 0.0
2018-Aug-12 09:30N 37°48' W 122°24'0 0.0
2018-Aug-12 09:00N 37°48' W 122°24'0 0.0
2018-Aug-12 08:29N 37°48' W 122°24'0 0.0
2018-Aug-12 08:00N 37°48' W 122°24'0 0.0
2018-Aug-12 07:30N 37°48' W 122°24'0 0.0
2018-Aug-12 07:00N 37°48' W 122°24'0 0.0
2018-Aug-12 06:30N 37°48' W 122°24'0 0.0
2018-Aug-12 06:00N 37°48' W 122°24'0 0.0
2018-Aug-12 05:30N 37°48' W 122°24'0 0.0
2018-Aug-12 05:00N 37°48' W 122°24'0 0.0
2018-Aug-12 04:30N 37°48' W 122°24'0 0.0
2018-Aug-12 04:00N 37°48' W 122°24'0 0.0
2018-Aug-12 03:30N 37°48' W 122°24'0 0.0
2018-Aug-12 03:00N 37°48' W 122°24'0 0.0
2018-Aug-12 02:30N 37°48' W 122°24'0 0.0
2018-Aug-12 02:00N 37°48' W 122°24'3 5.1
2018-Aug-12 01:30N 37°51' W 122°25'5 9.0
2018-Aug-12 01:00N 37°55' W 122°25'0 0.0
2018-Aug-12 00:30N 37°55' W 122°25'0 0.0
2018-Aug-12 00:00N 37°55' W 122°25'0 0.0
2018-Aug-11 23:30N 37°55' W 122°25'0 0.0
2018-Aug-11 23:00N 37°55' W 122°25'0 0.0
2018-Aug-11 22:25N 37°55' W 122°25'2 6.1
2018-Aug-11 22:00N 37°53' W 122°25'5 9.4
2018-Aug-11 21:30N 37°48' W 122°24'0 0.0
2018-Aug-11 21:00N 37°48' W 122°24'0 0.0
2018-Aug-11 20:30N 37°48' W 122°24'0 0.0
2018-Aug-11 20:00N 37°48' W 122°24'0 0.0
2018-Aug-11 19:30N 37°48' W 122°24'0 0.0
2018-Aug-11 19:00N 37°48' W 122°24'0 0.0
2018-Aug-11 18:30N 37°48' W 122°24'0 0.0
2018-Aug-11 18:00N 37°48' W 122°24'0 0.0
2018-Aug-11 17:30N 37°48' W 122°24'0 0.0
2018-Aug-11 17:00N 37°48' W 122°24'0 0.0
2018-Aug-11 16:30N 37°48' W 122°24'0 0.0
2018-Aug-11 16:00N 37°48' W 122°24'0 0.0
2018-Aug-11 15:30N 37°48' W 122°24'3 6.6
2018-Aug-11 15:01N 37°49' W 122°20'1 1.7
2018-Aug-11 14:31N 37°49' W 122°19'1 1.1
2018-Aug-11 14:00N 37°49' W 122°19'1 2.0
2018-Aug-11 13:30N 37°48' W 122°20'1 1.2
2018-Aug-11 13:00N 37°49' W 122°20'0 0.4
2018-Aug-11 12:31N 37°49' W 122°20'2 4.6
2018-Aug-11 12:01N 37°48' W 122°23'1 1.6
2018-Aug-11 11:30N 37°48' W 122°24'0 0.0
2018-Aug-11 11:00N 37°48' W 122°24'4 7.5
2018-Aug-11 10:30N 37°49' W 122°28'2 3.7
2018-Aug-11 10:00N 37°49' W 122°31'4 7.5
2018-Aug-11 09:31N 37°51' W 122°26'3 6.6
2018-Aug-11 09:00N 37°54' W 122°26'5 9.5
2018-Aug-11 08:31N 37°59' W 122°26'4 8.9
2018-Aug-11 08:00N 38°02' W 122°22'4 7.9
2018-Aug-11 07:30N 38°03' W 122°17'4 7.2
2018-Aug-11 06:59N 38°04' W 122°13'3 7.3
2018-Aug-11 06:30N 38°02' W 122°09'3 6.0
2018-Aug-11 06:01N 38°03' W 122°05'0 0.0
2018-Aug-11 05:30N 38°03' W 122°05'3 0.6
2018-Aug-10 23:50N 38°02' W 122°09'1 1.6
2018-Aug-10 23:04N 38°03' W 122°08'0 7.3
2018-Aug-10 23:00N 38°02' W 122°08'2 0.3
2018-Aug-10 18:16N 38°02' W 122°10'1 2.6
2018-Aug-10 18:00N 38°02' W 122°10'2 3.4
2018-Aug-10 17:30N 38°02' W 122°08'1 2.6
2018-Aug-10 17:00N 38°03' W 122°06'1 2.2
2018-Aug-10 16:31N 38°03' W 122°08'0 0.7
2018-Aug-10 16:00N 38°03' W 122°08'0 0.0
2018-Aug-10 15:30N 38°03' W 122°08'0 0.0
2018-Aug-10 15:00N 38°03' W 122°08'0 0.0
2018-Aug-10 14:30N 38°03' W 122°08'0 0.0
2018-Aug-10 14:00N 38°03' W 122°08'0 0.0
2018-Aug-10 13:30N 38°03' W 122°08'0 0.0
2018-Aug-10 13:00N 38°03' W 122°08'0 0.0
2018-Aug-10 12:30N 38°03' W 122°08'0 0.0
2018-Aug-10 12:00N 38°03' W 122°08'0 0.0
2018-Aug-10 11:30N 38°03' W 122°08'0 0.0
2018-Aug-10 10:59N 38°03' W 122°08'0 0.0
2018-Aug-10 10:30N 38°03' W 122°08'0 0.0
2018-Aug-10 10:00N 38°03' W 122°08'0 0.0
2018-Aug-10 09:30N 38°03' W 122°08'0 0.0
2018-Aug-10 09:00N 38°03' W 122°08'0 0.0
2018-Aug-10 08:20N 38°03' W 122°08'0 0.0
2018-Aug-10 07:56N 38°03' W 122°08'0 0.0
2018-Aug-10 07:30N 38°03' W 122°08'4 8.6
2018-Aug-10 07:01N 38°04' W 122°03'610.9
2018-Aug-10 06:28N 38°03' W 121°55'3 3.2
2018-Aug-10 05:40N 38°02' W 121°52'0 2.6
2018-Aug-10 05:30N 38°02' W 121°53'4 9.0
2018-Aug-10 05:00N 38°04' W 121°58'5 9.2
2018-Aug-10 04:27N 38°03' W 122°05'2 0.2
2018-Aug-09 20:13N 38°03' W 122°07'1 0.5
2018-Aug-09 18:37N 38°03' W 122°06'0 0.2
2018-Aug-09 18:30N 38°03' W 122°06'0 0.0
2018-Aug-09 18:00N 38°03' W 122°06'0 0.1
2018-Aug-09 17:23N 38°03' W 122°06'2 6.3
2018-Aug-09 17:00N 38°02' W 122°09'5 8.8
2018-Aug-09 16:29N 38°04' W 122°14'4 9.1
2018-Aug-09 16:00N 38°03' W 122°20'4 8.9
2018-Aug-09 15:30N 38°01' W 122°24'510.8
2018-Aug-09 15:01N 37°56' W 122°27'510.1
2018-Aug-09 14:30N 37°51' W 122°24'4 7.1
2018-Aug-09 14:00N 37°49' W 122°28'2 3.9
2018-Aug-09 13:30N 37°48' W 122°30'1 1.7
2018-Aug-09 13:00N 37°48' W 122°29'3 5.8
2018-Aug-09 12:30N 37°49' W 122°26'2 3.2
2018-Aug-09 12:00N 37°48' W 122°24'0 0.0
2018-Aug-09 11:30N 37°48' W 122°24'3 5.1
2018-Aug-09 11:00N 37°48' W 122°21'1 2.5
2018-Aug-09 10:31N 37°48' W 122°19'0 0.1
2018-Aug-09 10:00N 37°48' W 122°19'0 0.0
2018-Aug-09 09:30N 37°48' W 122°19'0 0.0
2018-Aug-09 09:00N 37°48' W 122°19'0 0.0
2018-Aug-09 08:30N 37°48' W 122°19'0 0.0
2018-Aug-09 08:00N 37°48' W 122°19'0 0.0
2018-Aug-09 07:30N 37°48' W 122°19'0 0.0
2018-Aug-09 07:01N 37°48' W 122°19'0 0.0
2018-Aug-09 06:30N 37°48' W 122°19'4 8.6
2018-Aug-09 06:00N 37°51' W 122°23'5 9.3
2018-Aug-09 05:30N 37°55' W 122°25'4 8.8
2018-Aug-09 05:00N 37°59' W 122°25'4 8.7
2018-Aug-09 04:31N 38°02' W 122°21'4 8.5
2018-Aug-09 04:00N 38°04' W 122°15'5 8.5
2018-Aug-09 03:24N 38°02' W 122°09'3 6.6
2018-Aug-09 03:01N 38°03' W 122°06'0 0.2
2018-Aug-09 02:29N 38°03' W 122°06'1 3.0
2018-Aug-09 02:00N 38°02' W 122°08'1 0.2
2018-Aug-08 19:51N 38°02' W 122°09'1 0.7
2018-Aug-08 18:36N 38°02' W 122°08'1 4.0
2018-Aug-08 18:28N 38°02' W 122°09'2 3.5
2018-Aug-08 17:55N 38°03' W 122°11'3 8.3
2018-Aug-08 17:30N 38°04' W 122°15'1 0.6
2018-Aug-08 16:33N 38°03' W 122°16'0 0.8
2018-Aug-08 16:24N 38°04' W 122°16'3 7.2
2018-Aug-08 15:59N 38°03' W 122°20'611.8
2018-Aug-08 15:30N 37°60' W 122°25'611.4
2018-Aug-08 15:00N 37°54' W 122°26'4 7.4
2018-Aug-08 14:30N 37°50' W 122°27'3 6.7
2018-Aug-08 14:00N 37°48' W 122°30'1 1.0
2018-Aug-08 13:30N 37°48' W 122°29'3 6.7
2018-Aug-08 13:00N 37°49' W 122°25'1 2.4
2018-Aug-08 12:30N 37°48' W 122°24'0 0.0
2018-Aug-08 12:00N 37°48' W 122°24'0 0.0
2018-Aug-08 11:30N 37°48' W 122°24'0 0.0
2018-Aug-08 11:00N 37°48' W 122°24'0 0.0
2018-Aug-08 10:30N 37°48' W 122°24'0 0.0
2018-Aug-08 10:00N 37°48' W 122°24'0 0.0
2018-Aug-08 09:30N 37°48' W 122°24'0 0.0
2018-Aug-08 09:00N 37°48' W 122°24'0 0.0
2018-Aug-08 08:30N 37°48' W 122°24'0 0.0
2018-Aug-08 08:00N 37°48' W 122°24'3 5.4
2018-Aug-08 07:30N 37°49' W 122°27'3 6.3
2018-Aug-08 07:00N 37°49' W 122°31'3 5.1
2018-Aug-08 06:31N 37°49' W 122°28'4 8.0
2018-Aug-08 06:00N 37°53' W 122°26'510.2
2018-Aug-08 05:30N 37°58' W 122°26'510.0
2018-Aug-08 05:00N 38°02' W 122°22'4 9.0
2018-Aug-08 04:30N 38°04' W 122°17'4 7.1
2018-Aug-08 04:00N 38°04' W 122°13'3 6.9
2018-Aug-08 03:30N 38°02' W 122°09'1 1.1
2018-Aug-08 03:00N 38°02' W 122°08'0 0.5
2018-Aug-08 02:30N 38°02' W 122°08'2 2.4
2018-Aug-08 01:43N 38°03' W 122°11'2 9.5
2018-Aug-08 01:30N 38°04' W 122°13'5 9.7
2018-Aug-08 01:01N 38°03' W 122°19'510.3
2018-Aug-08 00:30N 38°00' W 122°24'5 9.7
2018-Aug-08 00:00N 37°55' W 122°25'0 0.7
2018-Aug-07 23:30N 37°55' W 122°25'1 1.1
2018-Aug-07 23:00N 37°56' W 122°25'3 6.7
2018-Aug-07 22:30N 37°59' W 122°25'510.1
2018-Aug-07 22:00N 38°02' W 122°21'510.5
2018-Aug-07 21:30N 38°04' W 122°14'4 0.7
2018-Aug-07 15:53N 38°02' W 122°10'1 1.8
2018-Aug-07 15:11N 38°02' W 122°08'0 2.0
2018-Aug-07 15:00N 38°02' W 122°08'2 0.1
2018-Aug-07 02:50N 38°03' W 122°10'411.5
2018-Aug-07 02:30N 38°04' W 122°15'611.6
2018-Aug-07 02:00N 38°02' W 122°22'611.1
2018-Aug-07 01:30N 37°57' W 122°26'2 4.4
2018-Aug-07 01:00N 37°55' W 122°25'1 1.5
2018-Aug-07 00:30N 37°55' W 122°25'5 9.5
2018-Aug-07 00:01N 37°50' W 122°24'1 2.1
2018-Aug-06 23:30N 37°50' W 122°23'1 2.7
2018-Aug-06 23:00N 37°48' W 122°24'0 0.4
2018-Aug-06 22:30N 37°48' W 122°24'0 0.0
2018-Aug-06 22:00N 37°48' W 122°24'0 0.0
2018-Aug-06 21:30N 37°48' W 122°24'0 0.0
2018-Aug-06 21:00N 37°48' W 122°24'0 0.0
2018-Aug-06 20:30N 37°48' W 122°24'0 0.0
2018-Aug-06 20:00N 37°48' W 122°24'0 0.0
2018-Aug-06 19:30N 37°48' W 122°24'0 0.0
2018-Aug-06 19:00N 37°48' W 122°24'0 0.0
2018-Aug-06 18:30N 37°48' W 122°24'0 0.0
2018-Aug-06 18:00N 37°48' W 122°24'0 0.0
2018-Aug-06 17:30N 37°48' W 122°24'0 0.0
2018-Aug-06 17:00N 37°48' W 122°24'0 0.0
2018-Aug-06 16:30N 37°48' W 122°24'0 0.0
2018-Aug-06 16:00N 37°48' W 122°24'0 0.0
2018-Aug-06 15:30N 37°48' W 122°24'0 0.0
2018-Aug-06 15:00N 37°48' W 122°24'0 0.0
2018-Aug-06 14:30N 37°48' W 122°24'4 7.9
2018-Aug-06 14:00N 37°48' W 122°19'1 1.5
2018-Aug-06 13:30N 37°48' W 122°18'0 0.3
2018-Aug-06 13:01N 37°48' W 122°18'0 0.8
2018-Aug-06 12:30N 37°48' W 122°18'3 5.7
2018-Aug-06 12:00N 37°48' W 122°22'2 3.2
2018-Aug-06 11:30N 37°48' W 122°24'0 0.0
2018-Aug-06 11:00N 37°48' W 122°24'0 0.0
2018-Aug-06 10:30N 37°48' W 122°24'0 0.0
2018-Aug-06 10:00N 37°48' W 122°24'0 0.0
2018-Aug-06 09:30N 37°48' W 122°24'0 0.0
2018-Aug-06 09:00N 37°48' W 122°24'0 0.0
2018-Aug-06 08:29N 37°48' W 122°24'0 0.0
2018-Aug-06 08:00N 37°48' W 122°24'0 0.0
2018-Aug-06 07:30N 37°48' W 122°24'0 0.0
2018-Aug-06 07:00N 37°48' W 122°24'0 0.0
2018-Aug-06 06:30N 37°48' W 122°24'0 0.0
2018-Aug-06 06:00N 37°48' W 122°24'0 0.0
2018-Aug-06 05:30N 37°48' W 122°24'0 0.0
2018-Aug-06 05:00N 37°48' W 122°24'2 4.0
2018-Aug-06 04:30N 37°47' W 122°22'1 2.6
2018-Aug-06 04:00N 37°46' W 122°21'4 8.6
2018-Aug-06 03:31N 37°49' W 122°25'5 9.4
2018-Aug-06 03:01N 37°48' W 122°31'0 0.7
2018-Aug-06 02:31N 37°48' W 122°30'0 0.8
2018-Aug-06 02:00N 37°48' W 122°30'3 6.8
2018-Aug-06 01:30N 37°49' W 122°26'2 3.1
2018-Aug-06 01:00N 37°48' W 122°24'0 0.0
2018-Aug-06 00:30N 37°48' W 122°24'0 0.0
2018-Aug-06 00:00N 37°48' W 122°24'3 5.6
2018-Aug-05 23:30N 37°49' W 122°27'3 5.5
2018-Aug-05 23:00N 37°48' W 122°24'0 0.0
2018-Aug-05 22:30N 37°48' W 122°24'0 0.0
2018-Aug-05 22:00N 37°48' W 122°24'0 0.0
2018-Aug-05 21:30N 37°48' W 122°24'0 0.0
2018-Aug-05 21:00N 37°48' W 122°24'0 0.0
2018-Aug-05 20:30N 37°48' W 122°24'0 0.0
2018-Aug-05 20:00N 37°48' W 122°24'0 0.0
2018-Aug-05 19:30N 37°48' W 122°24'0 0.0
2018-Aug-05 19:00N 37°48' W 122°24'0 0.0
2018-Aug-05 18:30N 37°48' W 122°24'0 0.0
2018-Aug-05 18:00N 37°48' W 122°24'0 0.0
2018-Aug-05 17:30N 37°48' W 122°24'0 0.0
2018-Aug-05 17:00N 37°48' W 122°24'0 0.0
2018-Aug-05 16:30N 37°48' W 122°24'0 0.0
2018-Aug-05 16:00N 37°48' W 122°24'0 0.0
2018-Aug-05 15:30N 37°48' W 122°24'0 0.0
2018-Aug-05 15:00N 37°48' W 122°24'0 0.0
2018-Aug-05 14:30N 37°48' W 122°24'0 0.0
2018-Aug-05 13:30N 37°48' W 122°24'0 0.0
2018-Aug-05 13:00N 37°48' W 122°24'0 0.0
2018-Aug-05 12:30N 37°48' W 122°24'0 0.0
2018-Aug-05 12:00N 37°48' W 122°24'0 0.0
2018-Aug-05 11:30N 37°48' W 122°24'0 0.0
2018-Aug-05 11:00N 37°48' W 122°24'3 5.6
2018-Aug-05 10:30N 37°49' W 122°20'0 0.2
2018-Aug-05 10:00N 37°48' W 122°20'0 0.7
2018-Aug-05 09:30N 37°49' W 122°20'0 0.0
2018-Aug-05 09:00N 37°49' W 122°20'0 0.0
2018-Aug-05 08:30N 37°49' W 122°20'0 0.0
2018-Aug-05 08:00N 37°49' W 122°20'0 0.0
2018-Aug-05 07:30N 37°49' W 122°20'0 0.0
2018-Aug-05 07:00N 37°49' W 122°20'0 0.0
2018-Aug-05 06:30N 37°49' W 122°20'0 0.0
2018-Aug-05 06:00N 37°49' W 122°20'3 6.0
2018-Aug-05 05:30N 37°46' W 122°21'0 0.3
2018-Aug-05 05:01N 37°46' W 122°21'4 7.7
2018-Aug-05 04:30N 37°49' W 122°24'5 9.3
2018-Aug-05 04:00N 37°49' W 122°30'1 1.8
2018-Aug-05 03:30N 37°48' W 122°30'0 0.5
2018-Aug-05 03:00N 37°48' W 122°30'3 6.9
2018-Aug-05 02:30N 37°49' W 122°26'2 3.6
2018-Aug-05 02:00N 37°48' W 122°24'0 0.0
2018-Aug-05 01:30N 37°48' W 122°24'0 0.0
2018-Aug-05 01:00N 37°48' W 122°24'0 0.0
2018-Aug-05 00:30N 37°48' W 122°24'0 0.0
2018-Aug-05 00:00N 37°48' W 122°24'0 0.0
2018-Aug-04 23:30N 37°48' W 122°24'0 0.0
2018-Aug-04 23:00N 37°48' W 122°24'0 0.0
2018-Aug-04 22:30N 37°48' W 122°24'0 0.0
2018-Aug-04 22:00N 37°48' W 122°24'0 0.0
2018-Aug-04 21:30N 37°48' W 122°24'0 0.0
2018-Aug-04 21:00N 37°48' W 122°24'0 0.0
2018-Aug-04 20:30N 37°48' W 122°24'0 0.0
2018-Aug-04 20:00N 37°48' W 122°24'0 0.0
2018-Aug-04 19:30N 37°48' W 122°24'0 0.0
2018-Aug-04 19:00N 37°48' W 122°24'0 0.0
2018-Aug-04 18:30N 37°48' W 122°24'0 0.0
2018-Aug-04 18:00N 37°48' W 122°24'0 0.0
2018-Aug-04 17:30N 37°48' W 122°24'0 0.0
2018-Aug-04 17:00N 37°48' W 122°24'0 0.0
2018-Aug-04 16:30N 37°48' W 122°24'0 0.0
2018-Aug-04 16:00N 37°48' W 122°24'0 0.0
2018-Aug-04 15:30N 37°48' W 122°24'2 3.1
2018-Aug-04 15:00N 37°48' W 122°22'3 5.4
2018-Aug-04 14:30N 37°48' W 122°19'0 0.0
2018-Aug-04 14:00N 37°48' W 122°19'1 2.0
2018-Aug-04 13:31N 37°48' W 122°17'1 1.3
2018-Aug-04 13:01N 37°48' W 122°18'2 3.8
2018-Aug-04 12:30N 37°48' W 122°20'2 3.8
2018-Aug-04 12:00N 37°48' W 122°23'1 1.6
2018-Aug-04 11:30N 37°48' W 122°24'0 0.0
2018-Aug-04 11:00N 37°48' W 122°24'0 0.0
2018-Aug-04 10:30N 37°48' W 122°24'0 0.0
2018-Aug-04 10:00N 37°48' W 122°24'0 0.0
2018-Aug-04 09:30N 37°48' W 122°24'0 0.0
2018-Aug-04 09:00N 37°48' W 122°24'0 0.0
2018-Aug-04 08:30N 37°48' W 122°24'0 0.0
2018-Aug-04 08:00N 37°48' W 122°24'0 0.0
2018-Aug-04 07:30N 37°48' W 122°24'0 0.0
2018-Aug-04 07:00N 37°48' W 122°24'0 0.0
2018-Aug-04 06:30N 37°48' W 122°24'0 0.0
2018-Aug-04 06:00N 37°48' W 122°24'  
Track history (hours):
 
Tides and Currents Weather Stations Pressure Air Temp Water Temp Dewpoint Dewpoint Depression Visibility Wind Speed Wind Dir Waves Ship Positions

Goliah

Owner: Crowley Marine Services, Seattle, WA. More information available from US FCC via Universal Licensing System and Coast Guard Vessel Documentation Center.

Last reported at 2018-Aug-14 05:50 UTC. Time now 2018-Aug-14 07:01 UTC.
Position N 38°02' W 122°10'.

Length 33 m; draft 4.8 m.

Type: Tug. MMSI: 366898250.

Date/timePositionNaut miles runAvg speedWind from/ knotsBaromVisibWave heightAir tempDewpointWater temp
2018-Aug-14 05:50N 38°02' W 122°10'1 0.6
2018-Aug-14 03:33N 38°02' W 122°09'1 9.5
2018-Aug-14 03:29N 38°02' W 122°08'0 0.0
2018-Aug-14 02:56N 38°02' W 122°08'2 0.9
2018-Aug-14 00:24N 38°03' W 122°11'3 8.4
2018-Aug-14 00:00N 38°03' W 122°15'2 3.1
2018-Aug-13 23:30N 38°04' W 122°13'4 2.6
2018-Aug-13 22:00N 38°02' W 122°08'1 0.1
2018-Aug-13 13:36N 38°02' W 122°09'1 4.7
2018-Aug-13 13:25N 38°02' W 122°08'0 0.1
2018-Aug-13 13:00N 38°02' W 122°08'1 0.8
2018-Aug-13 12:18N 38°02' W 122°08'2 0.1
2018-Aug-13 00:53N 38°02' W 122°10'1 1.4
2018-Aug-13 00:26N 38°02' W 122°10'1 0.9
2018-Aug-12 22:57N 38°02' W 122°08'3 5.0
2018-Aug-12 22:22N 38°03' W 122°12'410.2
2018-Aug-12 22:00N 38°04' W 122°16'1 2.0
2018-Aug-12 21:30N 38°04' W 122°15'0 0.3
2018-Aug-12 21:00N 38°03' W 122°15'0 0.0
2018-Aug-12 20:30N 38°03' W 122°15'0 0.0
2018-Aug-12 20:00N 38°03' W 122°15'0 0.0
2018-Aug-12 19:29N 38°03' W 122°15'0 0.0
2018-Aug-12 19:00N 38°03' W 122°15'0 0.0
2018-Aug-12 18:30N 38°03' W 122°15'0 0.0
2018-Aug-12 18:00N 38°03' W 122°15'0 0.0
2018-Aug-12 17:30N 38°03' W 122°15'0 0.0
2018-Aug-12 17:00N 38°03' W 122°15'0 0.1
2018-Aug-12 16:31N 38°04' W 122°15'0 0.2
2018-Aug-12 16:00N 38°04' W 122°15'3 5.1
2018-Aug-12 15:30N 38°03' W 122°18'4 7.5
2018-Aug-12 15:01N 38°02' W 122°22'4 7.6
2018-Aug-12 14:30N 37°59' W 122°25'4 8.1
2018-Aug-12 14:00N 37°55' W 122°25'4 8.9
2018-Aug-12 13:30N 37°51' W 122°23'4 9.0
2018-Aug-12 13:00N 37°48' W 122°19'1 2.1
2018-Aug-12 12:30N 37°48' W 122°17'1 2.1
2018-Aug-12 12:00N 37°48' W 122°19'1 2.3
2018-Aug-12 11:30N 37°48' W 122°20'3 5.9
2018-Aug-12 11:00N 37°48' W 122°24'0 0.0
2018-Aug-12 10:30N 37°48' W 122°24'0 0.0
2018-Aug-12 09:59N 37°48' W 122°24'0 0.0
2018-Aug-12 09:30N 37°48' W 122°24'0 0.0
2018-Aug-12 09:00N 37°48' W 122°24'0 0.0
2018-Aug-12 08:29N 37°48' W 122°24'0 0.0
2018-Aug-12 08:00N 37°48' W 122°24'0 0.0
2018-Aug-12 07:30N 37°48' W 122°24'0 0.0
2018-Aug-12 07:00N 37°48' W 122°24'0 0.0
2018-Aug-12 06:30N 37°48' W 122°24'0 0.0
2018-Aug-12 06:00N 37°48' W 122°24'0 0.0
2018-Aug-12 05:30N 37°48' W 122°24'0 0.0
2018-Aug-12 05:00N 37°48' W 122°24'0 0.0
2018-Aug-12 04:30N 37°48' W 122°24'0 0.0
2018-Aug-12 04:00N 37°48' W 122°24'0 0.0
2018-Aug-12 03:30N 37°48' W 122°24'0 0.0
2018-Aug-12 03:00N 37°48' W 122°24'0 0.0
2018-Aug-12 02:30N 37°48' W 122°24'0 0.0
2018-Aug-12 02:00N 37°48' W 122°24'3 5.1
2018-Aug-12 01:30N 37°51' W 122°25'5 9.0
2018-Aug-12 01:00N 37°55' W 122°25'0 0.0
2018-Aug-12 00:30N 37°55' W 122°25'0 0.0
2018-Aug-12 00:00N 37°55' W 122°25'0 0.0
2018-Aug-11 23:30N 37°55' W 122°25'0 0.0
2018-Aug-11 23:00N 37°55' W 122°25'0 0.0
2018-Aug-11 22:25N 37°55' W 122°25'2 6.1
2018-Aug-11 22:00N 37°53' W 122°25'5 9.4
2018-Aug-11 21:30N 37°48' W 122°24'0 0.0
2018-Aug-11 21:00N 37°48' W 122°24'0 0.0
2018-Aug-11 20:30N 37°48' W 122°24'0 0.0
2018-Aug-11 20:00N 37°48' W 122°24'0 0.0
2018-Aug-11 19:30N 37°48' W 122°24'0 0.0
2018-Aug-11 19:00N 37°48' W 122°24'0 0.0
2018-Aug-11 18:30N 37°48' W 122°24'0 0.0
2018-Aug-11 18:00N 37°48' W 122°24'0 0.0
2018-Aug-11 17:30N 37°48' W 122°24'0 0.0
2018-Aug-11 17:00N 37°48' W 122°24'0 0.0
2018-Aug-11 16:30N 37°48' W 122°24'0 0.0
2018-Aug-11 16:00N 37°48' W 122°24'0 0.0
2018-Aug-11 15:30N 37°48' W 122°24'3 6.6
2018-Aug-11 15:01N 37°49' W 122°20'1 1.7
2018-Aug-11 14:31N 37°49' W 122°19'1 1.1
2018-Aug-11 14:00N 37°49' W 122°19'1 2.0
2018-Aug-11 13:30N 37°48' W 122°20'1 1.2
2018-Aug-11 13:00N 37°49' W 122°20'0 0.4
2018-Aug-11 12:31N 37°49' W 122°20'2 4.6
2018-Aug-11 12:01N 37°48' W 122°23'1 1.6
2018-Aug-11 11:30N 37°48' W 122°24'0 0.0
2018-Aug-11 11:00N 37°48' W 122°24'4 7.5
2018-Aug-11 10:30N 37°49' W 122°28'2 3.7
2018-Aug-11 10:00N 37°49' W 122°31'4 7.5
2018-Aug-11 09:31N 37°51' W 122°26'3 6.6
2018-Aug-11 09:00N 37°54' W 122°26'5 9.5
2018-Aug-11 08:31N 37°59' W 122°26'4 8.9
2018-Aug-11 08:00N 38°02' W 122°22'4 7.9
2018-Aug-11 07:30N 38°03' W 122°17'4 7.2
2018-Aug-11 06:59N 38°04' W 122°13'3 7.3
2018-Aug-11 06:30N 38°02' W 122°09'3 6.0
2018-Aug-11 06:01N 38°03' W 122°05'0 0.0
2018-Aug-11 05:30N 38°03' W 122°05'3 0.6
2018-Aug-10 23:50N 38°02' W 122°09'1 1.6
2018-Aug-10 23:04N 38°03' W 122°08'0 7.3
2018-Aug-10 23:00N 38°02' W 122°08'2 0.3
2018-Aug-10 18:16N 38°02' W 122°10'1 2.6
2018-Aug-10 18:00N 38°02' W 122°10'2 3.4
2018-Aug-10 17:30N 38°02' W 122°08'1 2.6
2018-Aug-10 17:00N 38°03' W 122°06'1 2.2
2018-Aug-10 16:31N 38°03' W 122°08'0 0.7
2018-Aug-10 16:00N 38°03' W 122°08'0 0.0
2018-Aug-10 15:30N 38°03' W 122°08'0 0.0
2018-Aug-10 15:00N 38°03' W 122°08'0 0.0
2018-Aug-10 14:30N 38°03' W 122°08'0 0.0
2018-Aug-10 14:00N 38°03' W 122°08'0 0.0
2018-Aug-10 13:30N 38°03' W 122°08'0 0.0
2018-Aug-10 13:00N 38°03' W 122°08'0 0.0
2018-Aug-10 12:30N 38°03' W 122°08'0 0.0
2018-Aug-10 12:00N 38°03' W 122°08'0 0.0
2018-Aug-10 11:30N 38°03' W 122°08'0 0.0
2018-Aug-10 10:59N 38°03' W 122°08'0 0.0
2018-Aug-10 10:30N 38°03' W 122°08'0 0.0
2018-Aug-10 10:00N 38°03' W 122°08'0 0.0
2018-Aug-10 09:30N 38°03' W 122°08'0 0.0
2018-Aug-10 09:00N 38°03' W 122°08'0 0.0
2018-Aug-10 08:20N 38°03' W 122°08'0 0.0
2018-Aug-10 07:56N 38°03' W 122°08'0 0.0
2018-Aug-10 07:30N 38°03' W 122°08'4 8.6
2018-Aug-10 07:01N 38°04' W 122°03'610.9
2018-Aug-10 06:28N 38°03' W 121°55'3 3.2
2018-Aug-10 05:40N 38°02' W 121°52'0 2.6
2018-Aug-10 05:30N 38°02' W 121°53'4 9.0
2018-Aug-10 05:00N 38°04' W 121°58'5 9.2
2018-Aug-10 04:27N 38°03' W 122°05'2 0.2
2018-Aug-09 20:13N 38°03' W 122°07'1 0.5
2018-Aug-09 18:37N 38°03' W 122°06'0 0.2
2018-Aug-09 18:30N 38°03' W 122°06'0 0.0
2018-Aug-09 18:00N 38°03' W 122°06'0 0.1
2018-Aug-09 17:23N 38°03' W 122°06'2 6.3
2018-Aug-09 17:00N 38°02' W 122°09'5 8.8
2018-Aug-09 16:29N 38°04' W 122°14'4 9.1
2018-Aug-09 16:00N 38°03' W 122°20'4 8.9
2018-Aug-09 15:30N 38°01' W 122°24'510.8
2018-Aug-09 15:01N 37°56' W 122°27'510.1
2018-Aug-09 14:30N 37°51' W 122°24'4 7.1
2018-Aug-09 14:00N 37°49' W 122°28'2 3.9
2018-Aug-09 13:30N 37°48' W 122°30'1 1.7
2018-Aug-09 13:00N 37°48' W 122°29'3 5.8
2018-Aug-09 12:30N 37°49' W 122°26'2 3.2
2018-Aug-09 12:00N 37°48' W 122°24'0 0.0
2018-Aug-09 11:30N 37°48' W 122°24'3 5.1
2018-Aug-09 11:00N 37°48' W 122°21'1 2.5
2018-Aug-09 10:31N 37°48' W 122°19'0 0.1
2018-Aug-09 10:00N 37°48' W 122°19'0 0.0
2018-Aug-09 09:30N 37°48' W 122°19'0 0.0
2018-Aug-09 09:00N 37°48' W 122°19'0 0.0
2018-Aug-09 08:30N 37°48' W 122°19'0 0.0
2018-Aug-09 08:00N 37°48' W 122°19'0 0.0
2018-Aug-09 07:30N 37°48' W 122°19'0 0.0
2018-Aug-09 07:01N 37°48' W 122°19'0 0.0
2018-Aug-09 06:30N 37°48' W 122°19'4 8.6
2018-Aug-09 06:00N 37°51' W 122°23'5 9.3
2018-Aug-09 05:30N 37°55' W 122°25'4 8.8
2018-Aug-09 05:00N 37°59' W 122°25'4 8.7
2018-Aug-09 04:31N 38°02' W 122°21'4 8.5
2018-Aug-09 04:00N 38°04' W 122°15'5 8.5
2018-Aug-09 03:24N 38°02' W 122°09'3 6.6
2018-Aug-09 03:01N 38°03' W 122°06'0 0.2
2018-Aug-09 02:29N 38°03' W 122°06'1 3.0
2018-Aug-09 02:00N 38°02' W 122°08'1 0.2
2018-Aug-08 19:51N 38°02' W 122°09'1 0.7
2018-Aug-08 18:36N 38°02' W 122°08'1 4.0
2018-Aug-08 18:28N 38°02' W 122°09'2 3.5
2018-Aug-08 17:55N 38°03' W 122°11'3 8.3
2018-Aug-08 17:30N 38°04' W 122°15'1 0.6
2018-Aug-08 16:33N 38°03' W 122°16'0 0.8
2018-Aug-08 16:24N 38°04' W 122°16'3 7.2
2018-Aug-08 15:59N 38°03' W 122°20'611.8
2018-Aug-08 15:30N 37°60' W 122°25'611.4
2018-Aug-08 15:00N 37°54' W 122°26'4 7.4
2018-Aug-08 14:30N 37°50' W 122°27'3 6.7
2018-Aug-08 14:00N 37°48' W 122°30'1 1.0
2018-Aug-08 13:30N 37°48' W 122°29'3 6.7
2018-Aug-08 13:00N 37°49' W 122°25'1 2.4
2018-Aug-08 12:30N 37°48' W 122°24'0 0.0
2018-Aug-08 12:00N 37°48' W 122°24'0 0.0
2018-Aug-08 11:30N 37°48' W 122°24'0 0.0
2018-Aug-08 11:00N 37°48' W 122°24'0 0.0
2018-Aug-08 10:30N 37°48' W 122°24'0 0.0
2018-Aug-08 10:00N 37°48' W 122°24'0 0.0
2018-Aug-08 09:30N 37°48' W 122°24'0 0.0
2018-Aug-08 09:00N 37°48' W 122°24'0 0.0
2018-Aug-08 08:30N 37°48' W 122°24'0 0.0
2018-Aug-08 08:00N 37°48' W 122°24'3 5.4
2018-Aug-08 07:30N 37°49' W 122°27'3 6.3
2018-Aug-08 07:00N 37°49' W 122°31'3 5.1
2018-Aug-08 06:31N 37°49' W 122°28'4 8.0
2018-Aug-08 06:00N 37°53' W 122°26'510.2
2018-Aug-08 05:30N 37°58' W 122°26'510.0
2018-Aug-08 05:00N 38°02' W 122°22'4 9.0
2018-Aug-08 04:30N 38°04' W 122°17'4 7.1
2018-Aug-08 04:00N 38°04' W 122°13'3 6.9
2018-Aug-08 03:30N 38°02' W 122°09'1 1.1
2018-Aug-08 03:00N 38°02' W 122°08'0 0.5
2018-Aug-08 02:30N 38°02' W 122°08'2 2.4
2018-Aug-08 01:43N 38°03' W 122°11'2 9.5
2018-Aug-08 01:30N 38°04' W 122°13'5 9.7
2018-Aug-08 01:01N 38°03' W 122°19'510.3
2018-Aug-08 00:30N 38°00' W 122°24'5 9.7
2018-Aug-08 00:00N 37°55' W 122°25'0 0.7
2018-Aug-07 23:30N 37°55' W 122°25'1 1.1
2018-Aug-07 23:00N 37°56' W 122°25'3 6.7
2018-Aug-07 22:30N 37°59' W 122°25'510.1
2018-Aug-07 22:00N 38°02' W 122°21'510.5
2018-Aug-07 21:30N 38°04' W 122°14'4 0.7
2018-Aug-07 15:53N 38°02' W 122°10'1 1.8
2018-Aug-07 15:11N 38°02' W 122°08'0 2.0
2018-Aug-07 15:00N 38°02' W 122°08'2 0.1
2018-Aug-07 02:50N 38°03' W 122°10'411.5
2018-Aug-07 02:30N 38°04' W 122°15'611.6
2018-Aug-07 02:00N 38°02' W 122°22'611.1
2018-Aug-07 01:30N 37°57' W 122°26'2 4.4
2018-Aug-07 01:00N 37°55' W 122°25'1 1.5
2018-Aug-07 00:30N 37°55' W 122°25'5 9.5
2018-Aug-07 00:01N 37°50' W 122°24'1 2.1
2018-Aug-06 23:30N 37°50' W 122°23'1 2.7
2018-Aug-06 23:00N 37°48' W 122°24'0 0.4
2018-Aug-06 22:30N 37°48' W 122°24'0 0.0
2018-Aug-06 22:00N 37°48' W 122°24'0 0.0
2018-Aug-06 21:30N 37°48' W 122°24'0 0.0
2018-Aug-06 21:00N 37°48' W 122°24'0 0.0
2018-Aug-06 20:30N 37°48' W 122°24'0 0.0
2018-Aug-06 20:00N 37°48' W 122°24'0 0.0
2018-Aug-06 19:30N 37°48' W 122°24'0 0.0
2018-Aug-06 19:00N 37°48' W 122°24'0 0.0
2018-Aug-06 18:30N 37°48' W 122°24'0 0.0
2018-Aug-06 18:00N 37°48' W 122°24'0 0.0
2018-Aug-06 17:30N 37°48' W 122°24'0 0.0
2018-Aug-06 17:00N 37°48' W 122°24'0 0.0
2018-Aug-06 16:30N 37°48' W 122°24'0 0.0
2018-Aug-06 16:00N 37°48' W 122°24'0 0.0
2018-Aug-06 15:30N 37°48' W 122°24'0 0.0
2018-Aug-06 15:00N 37°48' W 122°24'0 0.0
2018-Aug-06 14:30N 37°48' W 122°24'4 7.9
2018-Aug-06 14:00N 37°48' W 122°19'1 1.5
2018-Aug-06 13:30N 37°48' W 122°18'0 0.3
2018-Aug-06 13:01N 37°48' W 122°18'0 0.8
2018-Aug-06 12:30N 37°48' W 122°18'3 5.7
2018-Aug-06 12:00N 37°48' W 122°22'2 3.2
2018-Aug-06 11:30N 37°48' W 122°24'0 0.0
2018-Aug-06 11:00N 37°48' W 122°24'0 0.0
2018-Aug-06 10:30N 37°48' W 122°24'0 0.0
2018-Aug-06 10:00N 37°48' W 122°24'0 0.0
2018-Aug-06 09:30N 37°48' W 122°24'0 0.0
2018-Aug-06 09:00N 37°48' W 122°24'0 0.0
2018-Aug-06 08:29N 37°48' W 122°24'0 0.0
2018-Aug-06 08:00N 37°48' W 122°24'0 0.0
2018-Aug-06 07:30N 37°48' W 122°24'0 0.0
2018-Aug-06 07:00N 37°48' W 122°24'0 0.0
2018-Aug-06 06:30N 37°48' W 122°24'0 0.0
2018-Aug-06 06:00N 37°48' W 122°24'0 0.0
2018-Aug-06 05:30N 37°48' W 122°24'0 0.0
2018-Aug-06 05:00N 37°48' W 122°24'2 4.0
2018-Aug-06 04:30N 37°47' W 122°22'1 2.6
2018-Aug-06 04:00N 37°46' W 122°21'4 8.6
2018-Aug-06 03:31N 37°49' W 122°25'5 9.4
2018-Aug-06 03:01N 37°48' W 122°31'0 0.7
2018-Aug-06 02:31N 37°48' W 122°30'0 0.8
2018-Aug-06 02:00N 37°48' W 122°30'3 6.8
2018-Aug-06 01:30N 37°49' W 122°26'2 3.1
2018-Aug-06 01:00N 37°48' W 122°24'0 0.0
2018-Aug-06 00:30N 37°48' W 122°24'0 0.0
2018-Aug-06 00:00N 37°48' W 122°24'3 5.6
2018-Aug-05 23:30N 37°49' W 122°27'3 5.5
2018-Aug-05 23:00N 37°48' W 122°24'0 0.0
2018-Aug-05 22:30N 37°48' W 122°24'0 0.0
2018-Aug-05 22:00N 37°48' W 122°24'0 0.0
2018-Aug-05 21:30N 37°48' W 122°24'0 0.0
2018-Aug-05 21:00N 37°48' W 122°24'0 0.0
2018-Aug-05 20:30N 37°48' W 122°24'0 0.0
2018-Aug-05 20:00N 37°48' W 122°24'0 0.0
2018-Aug-05 19:30N 37°48' W 122°24'0 0.0
2018-Aug-05 19:00N 37°48' W 122°24'0 0.0
2018-Aug-05 18:30N 37°48' W 122°24'0 0.0
2018-Aug-05 18:00N 37°48' W 122°24'0 0.0
2018-Aug-05 17:30N 37°48' W 122°24'0 0.0
2018-Aug-05 17:00N 37°48' W 122°24'0 0.0
2018-Aug-05 16:30N 37°48' W 122°24'0 0.0
2018-Aug-05 16:00N 37°48' W 122°24'0 0.0
2018-Aug-05 15:30N 37°48' W 122°24'0 0.0
2018-Aug-05 15:00N 37°48' W 122°24'0 0.0
2018-Aug-05 14:30N 37°48' W 122°24'0 0.0
2018-Aug-05 13:30N 37°48' W 122°24'0 0.0
2018-Aug-05 13:00N 37°48' W 122°24'0 0.0
2018-Aug-05 12:30N 37°48' W 122°24'0 0.0
2018-Aug-05 12:00N 37°48' W 122°24'0 0.0
2018-Aug-05 11:30N 37°48' W 122°24'0 0.0
2018-Aug-05 11:00N 37°48' W 122°24'3 5.6
2018-Aug-05 10:30N 37°49' W 122°20'0 0.2
2018-Aug-05 10:00N 37°48' W 122°20'0 0.7
2018-Aug-05 09:30N 37°49' W 122°20'0 0.0
2018-Aug-05 09:00N 37°49' W 122°20'0 0.0
2018-Aug-05 08:30N 37°49' W 122°20'0 0.0
2018-Aug-05 08:00N 37°49' W 122°20'0 0.0
2018-Aug-05 07:30N 37°49' W 122°20'0 0.0
2018-Aug-05 07:00N 37°49' W 122°20'0 0.0
2018-Aug-05 06:30N 37°49' W 122°20'0 0.0
2018-Aug-05 06:00N 37°49' W 122°20'3 6.0
2018-Aug-05 05:30N 37°46' W 122°21'0 0.3
2018-Aug-05 05:01N 37°46' W 122°21'4 7.7
2018-Aug-05 04:30N 37°49' W 122°24'5 9.3
2018-Aug-05 04:00N 37°49' W 122°30'1 1.8
2018-Aug-05 03:30N 37°48' W 122°30'0 0.5
2018-Aug-05 03:00N 37°48' W 122°30'3 6.9
2018-Aug-05 02:30N 37°49' W 122°26'2 3.6
2018-Aug-05 02:00N 37°48' W 122°24'0 0.0
2018-Aug-05 01:30N 37°48' W 122°24'0 0.0
2018-Aug-05 01:00N 37°48' W 122°24'0 0.0
2018-Aug-05 00:30N 37°48' W 122°24'0 0.0
2018-Aug-05 00:00N 37°48' W 122°24'0 0.0
2018-Aug-04 23:30N 37°48' W 122°24'0 0.0
2018-Aug-04 23:00N 37°48' W 122°24'0 0.0
2018-Aug-04 22:30N 37°48' W 122°24'0 0.0
2018-Aug-04 22:00N 37°48' W 122°24'0 0.0
2018-Aug-04 21:30N 37°48' W 122°24'0 0.0
2018-Aug-04 21:00N 37°48' W 122°24'0 0.0
2018-Aug-04 20:30N 37°48' W 122°24'0 0.0
2018-Aug-04 20:00N 37°48' W 122°24'0 0.0
2018-Aug-04 19:30N 37°48' W 122°24'0 0.0
2018-Aug-04 19:00N 37°48' W 122°24'0 0.0
2018-Aug-04 18:30N 37°48' W 122°24'0 0.0
2018-Aug-04 18:00N 37°48' W 122°24'0 0.0
2018-Aug-04 17:30N 37°48' W 122°24'0 0.0
2018-Aug-04 17:00N 37°48' W 122°24'0 0.0
2018-Aug-04 16:30N 37°48' W 122°24'0 0.0
2018-Aug-04 16:00N 37°48' W 122°24'0 0.0
2018-Aug-04 15:30N 37°48' W 122°24'2 3.1
2018-Aug-04 15:00N 37°48' W 122°22'3 5.4
2018-Aug-04 14:30N 37°48' W 122°19'0 0.0
2018-Aug-04 14:00N 37°48' W 122°19'1 2.0
2018-Aug-04 13:31N 37°48' W 122°17'1 1.3
2018-Aug-04 13:01N 37°48' W 122°18'2 3.8
2018-Aug-04 12:30N 37°48' W 122°20'2 3.8
2018-Aug-04 12:00N 37°48' W 122°23'1 1.6
2018-Aug-04 11:30N 37°48' W 122°24'0 0.0
2018-Aug-04 11:00N 37°48' W 122°24'0 0.0
2018-Aug-04 10:30N 37°48' W 122°24'0 0.0
2018-Aug-04 10:00N 37°48' W 122°24'0 0.0
2018-Aug-04 09:30N 37°48' W 122°24'0 0.0
2018-Aug-04 09:00N 37°48' W 122°24'0 0.0
2018-Aug-04 08:30N 37°48' W 122°24'0 0.0
2018-Aug-04 08:00N 37°48' W 122°24'0 0.0
2018-Aug-04 07:30N 37°48' W 122°24'0 0.0
2018-Aug-04 07:00N 37°48' W 122°24'0 0.0
2018-Aug-04 06:30N 37°48' W 122°24'0 0.0
2018-Aug-04 06:00N 37°48' W 122°24'  

Dump ship's entire track history